createdAt,value
2018-09-20T00:00:14.156Z,96157.00
2018-09-20T00:00:46.340Z,96158.00
2018-09-20T00:01:18.535Z,96156.00
2018-09-20T00:01:50.873Z,96158.00
2018-09-20T00:02:23.086Z,96158.00
2018-09-20T00:02:55.258Z,96160.00
2018-09-20T00:03:27.592Z,96162.00
2018-09-20T00:03:59.723Z,96156.00
2018-09-20T00:04:31.914Z,96158.00
2018-09-20T00:05:04.118Z,96161.00
2018-09-20T00:05:36.299Z,96159.00
2018-09-20T00:06:08.545Z,96158.00
2018-09-20T00:06:40.666Z,96157.00
2018-09-20T00:07:12.943Z,96156.00
2018-09-20T00:07:45.158Z,96157.00
2018-09-20T00:08:17.251Z,96153.00
2018-09-20T00:08:49.506Z,96155.00
2018-09-20T00:09:21.629Z,96160.00
2018-09-20T00:09:53.903Z,96157.00
2018-09-20T00:10:26.236Z,96159.00
2018-09-20T00:10:58.381Z,96153.00
2018-09-20T00:11:30.502Z,96159.00
2018-09-20T00:12:02.644Z,96154.00
2018-09-20T00:12:34.737Z,96155.00
2018-09-20T00:13:06.894Z,96156.00
2018-09-20T00:13:39.133Z,96156.00
2018-09-20T00:14:11.290Z,96156.00
2018-09-20T00:14:43.515Z,96158.00
2018-09-20T00:15:15.645Z,96155.00
2018-09-20T00:15:47.761Z,96154.00
2018-09-20T00:16:19.870Z,96155.00
2018-09-20T00:16:52.210Z,96154.00
2018-09-20T00:17:24.330Z,96154.00
2018-09-20T00:17:56.426Z,96155.00
2018-09-20T00:18:28.531Z,96155.00
2018-09-20T00:19:00.621Z,96157.00
2018-09-20T00:19:32.758Z,96155.00
2018-09-20T00:20:04.893Z,96152.00
2018-09-20T00:20:37.158Z,96156.00
2018-09-20T00:21:09.364Z,96151.00
2018-09-20T00:21:41.489Z,96157.00
2018-09-20T00:22:13.829Z,96147.00
2018-09-20T00:22:46.225Z,96152.00
2018-09-20T00:23:18.342Z,96151.00
2018-09-20T00:23:50.505Z,96151.00
2018-09-20T00:24:22.827Z,96148.00
2018-09-20T00:24:55.453Z,96147.00
2018-09-20T00:25:27.601Z,96149.00
2018-09-20T00:25:59.880Z,96147.00
2018-09-20T00:26:32.157Z,96145.00
2018-09-20T00:27:04.566Z,96146.00
2018-09-20T00:27:36.725Z,96144.00
2018-09-20T00:28:08.869Z,96143.00
2018-09-20T00:28:41.021Z,96144.00
2018-09-20T00:29:13.163Z,96142.00
2018-09-20T00:29:45.390Z,96143.00
2018-09-20T00:30:17.543Z,96146.00
2018-09-20T00:30:49.674Z,96141.00
2018-09-20T00:31:21.850Z,96144.00
2018-09-20T00:31:53.955Z,96140.00
2018-09-20T00:32:26.159Z,96141.00
2018-09-20T00:32:58.282Z,96141.00
2018-09-20T00:33:30.774Z,96144.00
2018-09-20T00:34:02.928Z,96144.00
2018-09-20T00:34:35.155Z,96143.00
2018-09-20T00:35:07.278Z,96145.00
2018-09-20T00:35:39.497Z,96144.00
2018-09-20T00:36:11.607Z,96140.00
2018-09-20T00:36:43.750Z,96145.00
2018-09-20T00:37:16.179Z,96148.00
2018-09-20T00:37:48.442Z,96145.00
2018-09-20T00:38:20.891Z,96141.00
2018-09-20T00:38:53.082Z,96142.00
2018-09-20T00:39:25.399Z,96143.00
2018-09-20T00:39:57.534Z,96142.00
2018-09-20T00:40:29.682Z,96142.00
2018-09-20T00:41:01.801Z,96144.00
2018-09-20T00:41:33.936Z,96148.00
2018-09-20T00:42:06.029Z,96148.00
2018-09-20T00:42:38.255Z,96147.00
2018-09-20T00:43:10.442Z,96142.00
2018-09-20T00:43:42.571Z,96145.00
2018-09-20T00:44:14.737Z,96147.00
2018-09-20T00:44:46.863Z,96145.00
2018-09-20T00:45:19.009Z,96147.00
2018-09-20T00:45:51.101Z,96142.00
2018-09-20T00:46:23.234Z,96143.00
2018-09-20T00:46:55.355Z,96145.00
2018-09-20T00:47:27.571Z,96142.00
2018-09-20T00:47:59.905Z,96140.00
2018-09-20T00:48:32.140Z,96145.00
2018-09-20T00:49:04.307Z,96144.00
2018-09-20T00:49:36.393Z,96140.00
2018-09-20T00:50:08.494Z,96143.00
2018-09-20T00:50:40.645Z,96144.00
2018-09-20T00:51:12.768Z,96145.00
2018-09-20T00:51:44.919Z,96142.00
2018-09-20T00:52:17.182Z,96143.00
2018-09-20T00:52:49.279Z,96141.00
2018-09-20T00:53:21.448Z,96144.00
2018-09-20T00:53:53.651Z,96144.00
2018-09-20T00:54:25.804Z,96141.00
2018-09-20T00:54:57.919Z,96142.00
2018-09-20T00:55:30.290Z,96143.00
2018-09-20T00:56:02.460Z,96140.00
2018-09-20T00:56:34.614Z,96141.00
2018-09-20T00:57:06.951Z,96142.00
2018-09-20T00:57:39.085Z,96141.00
2018-09-20T00:58:11.242Z,96141.00
2018-09-20T00:58:43.357Z,96137.00
2018-09-20T00:59:15.464Z,96141.00
2018-09-20T00:59:47.630Z,96140.00
2018-09-20T01:00:19.764Z,96142.00
2018-09-20T01:00:51.873Z,96138.00
2018-09-20T01:01:23.963Z,96141.00
2018-09-20T01:01:56.079Z,96141.00
2018-09-20T01:02:28.231Z,96145.00
2018-09-20T01:03:00.356Z,96140.00
2018-09-20T01:03:32.598Z,96144.00
2018-09-20T01:04:04.752Z,96144.00
2018-09-20T01:04:36.922Z,96142.00
2018-09-20T01:05:09.077Z,96149.00
2018-09-20T01:05:41.162Z,96146.00
2018-09-20T01:06:13.287Z,96148.00
2018-09-20T01:06:45.397Z,96148.00
2018-09-20T01:07:17.673Z,96149.00
2018-09-20T01:07:49.829Z,96150.00
2018-09-20T01:08:21.989Z,96149.00
2018-09-20T01:08:54.153Z,96149.00
2018-09-20T01:09:26.630Z,96149.00
2018-09-20T01:09:58.784Z,96146.00
2018-09-20T01:10:31.051Z,96148.00
2018-09-20T01:11:03.296Z,96150.00
2018-09-20T01:11:35.416Z,96145.00
2018-09-20T01:12:07.551Z,96143.00
2018-09-20T01:12:39.638Z,96142.00
2018-09-20T01:13:11.959Z,96144.00
2018-09-20T01:13:44.074Z,96142.00
2018-09-20T01:14:16.337Z,96143.00
2018-09-20T01:14:48.478Z,96147.00
2018-09-20T01:15:20.739Z,96145.00
2018-09-20T01:15:52.869Z,96145.00
2018-09-20T01:16:25.002Z,96147.00
2018-09-20T01:16:57.148Z,96145.00
2018-09-20T01:17:29.356Z,96148.00
2018-09-20T01:18:01.479Z,96148.00
2018-09-20T01:18:33.661Z,96147.00
2018-09-20T01:19:05.743Z,96144.00
2018-09-20T01:19:37.972Z,96146.00
2018-09-20T01:20:10.060Z,96146.00
2018-09-20T01:20:42.337Z,96147.00
2018-09-20T01:21:14.532Z,96145.00
2018-09-20T01:21:46.635Z,96149.00
2018-09-20T01:22:18.728Z,96150.00
2018-09-20T01:22:50.822Z,96152.00
2018-09-20T01:23:23.007Z,96151.00
2018-09-20T01:23:55.122Z,96152.00
2018-09-20T01:24:27.353Z,96150.00
2018-09-20T01:24:59.493Z,96152.00
2018-09-20T01:25:31.726Z,96149.00
2018-09-20T01:26:03.927Z,96149.00
2018-09-20T01:26:36.094Z,96149.00
2018-09-20T01:27:08.299Z,96150.00
2018-09-20T01:27:40.461Z,96148.00
2018-09-20T01:28:12.838Z,96153.00
2018-09-20T01:28:44.963Z,96152.00
2018-09-20T01:29:17.219Z,96148.00
2018-09-20T01:29:49.344Z,96155.00
2018-09-20T01:30:21.553Z,96151.00
2018-09-20T01:30:53.657Z,96150.00
2018-09-20T01:31:25.865Z,96149.00
2018-09-20T01:31:58.010Z,96150.00
2018-09-20T01:32:30.137Z,96153.00
2018-09-20T01:33:02.233Z,96148.00
2018-09-20T01:33:34.404Z,96150.00
2018-09-20T01:34:06.541Z,96148.00
2018-09-20T01:34:38.701Z,96148.00
2018-09-20T01:35:10.789Z,96148.00
2018-09-20T01:35:42.892Z,96149.00
2018-09-20T01:36:15.353Z,96149.00
2018-09-20T01:36:47.573Z,96149.00
2018-09-20T01:37:19.831Z,96149.00
2018-09-20T01:37:52.020Z,96151.00
2018-09-20T01:38:24.126Z,96151.00
2018-09-20T01:38:56.277Z,96149.00
2018-09-20T01:39:28.483Z,96149.00
2018-09-20T01:40:00.558Z,96148.00
2018-09-20T01:40:32.687Z,96148.00
2018-09-20T01:41:05.046Z,96147.00
2018-09-20T01:41:37.123Z,96145.00
2018-09-20T01:42:09.262Z,96148.00
2018-09-20T01:42:41.362Z,96146.00
2018-09-20T01:43:13.562Z,96144.00
2018-09-20T01:43:45.662Z,96143.00
2018-09-20T01:44:17.869Z,96150.00
2018-09-20T01:44:50.094Z,96149.00
2018-09-20T01:45:22.240Z,96146.00
2018-09-20T01:45:54.323Z,96150.00
2018-09-20T01:46:26.450Z,96150.00
2018-09-20T01:46:58.551Z,96146.00
2018-09-20T01:47:30.654Z,96150.00
2018-09-20T01:48:02.766Z,96149.00
2018-09-20T01:48:34.909Z,96151.00
2018-09-20T01:49:07.050Z,96150.00
2018-09-20T01:49:39.299Z,96152.00
2018-09-20T01:50:11.460Z,96154.00
2018-09-20T01:50:43.579Z,96151.00
2018-09-20T01:51:15.837Z,96150.00
2018-09-20T01:51:48.010Z,96153.00
2018-09-20T01:52:20.093Z,96153.00
2018-09-20T01:52:52.161Z,96157.00
2018-09-20T01:53:24.263Z,96151.00
2018-09-20T01:53:56.367Z,96151.00
2018-09-20T01:54:28.466Z,96150.00
2018-09-20T01:55:00.597Z,96152.00
2018-09-20T01:55:32.692Z,96150.00
2018-09-20T01:56:04.787Z,96151.00
2018-09-20T01:56:36.937Z,96152.00
2018-09-20T01:57:09.156Z,96150.00
2018-09-20T01:57:41.279Z,96152.00
2018-09-20T01:58:13.385Z,96154.00
2018-09-20T01:58:45.511Z,96150.00
2018-09-20T01:59:17.686Z,96152.00
2018-09-20T01:59:49.794Z,96154.00
2018-09-20T02:00:21.888Z,96156.00
2018-09-20T02:00:54.020Z,96153.00
2018-09-20T02:01:26.286Z,96156.00
2018-09-20T02:01:58.403Z,96156.00
2018-09-20T02:02:30.606Z,96156.00
2018-09-20T02:03:02.716Z,96153.00
2018-09-20T02:03:34.825Z,96151.00
2018-09-20T02:04:06.978Z,96153.00
2018-09-20T02:04:39.189Z,96150.00
2018-09-20T02:05:11.370Z,96151.00
2018-09-20T02:05:43.631Z,96152.00
2018-09-20T02:06:15.716Z,96154.00
2018-09-20T02:06:47.827Z,96150.00
2018-09-20T02:07:20.091Z,96148.00
2018-09-20T02:07:52.270Z,96153.00
2018-09-20T02:08:24.389Z,96150.00
2018-09-20T02:08:56.646Z,96144.00
2018-09-20T02:09:28.779Z,96150.00
2018-09-20T02:10:01.056Z,96147.00
2018-09-20T02:10:33.167Z,96152.00
2018-09-20T02:11:05.297Z,96152.00
2018-09-20T02:11:37.462Z,96151.00
2018-09-20T02:12:09.549Z,96151.00
2018-09-20T02:12:41.658Z,96153.00
2018-09-20T02:13:13.761Z,96150.00
2018-09-20T02:13:45.873Z,96151.00
2018-09-20T02:14:17.998Z,96147.00
2018-09-20T02:14:50.123Z,96152.00
2018-09-20T02:15:22.310Z,96151.00
2018-09-20T02:15:54.512Z,96151.00
2018-09-20T02:16:26.627Z,96149.00
2018-09-20T02:16:58.720Z,96146.00
2018-09-20T02:17:30.873Z,96148.00
2018-09-20T02:18:02.989Z,96148.00
2018-09-20T02:18:35.109Z,96148.00
2018-09-20T02:19:07.249Z,96151.00
2018-09-20T02:19:39.630Z,96143.00
2018-09-20T02:20:11.717Z,96149.00
2018-09-20T02:20:43.833Z,96152.00
2018-09-20T02:21:15.950Z,96147.00
2018-09-20T02:21:48.061Z,96148.00
2018-09-20T02:22:20.292Z,96147.00
2018-09-20T02:22:52.624Z,96151.00
2018-09-20T02:23:24.722Z,96147.00
2018-09-20T02:23:56.831Z,96145.00
2018-09-20T02:24:28.942Z,96147.00
2018-09-20T02:25:01.108Z,96147.00
2018-09-20T02:25:33.385Z,96145.00
2018-09-20T02:26:05.496Z,96147.00
2018-09-20T02:26:37.697Z,96150.00
2018-09-20T02:27:09.813Z,96149.00
2018-09-20T02:27:41.938Z,96148.00
2018-09-20T02:28:14.103Z,96150.00
2018-09-20T02:28:46.516Z,96148.00
2018-09-20T02:29:18.643Z,96148.00
2018-09-20T02:29:50.773Z,96149.00
2018-09-20T02:30:22.976Z,96150.00
2018-09-20T02:30:55.073Z,96150.00
2018-09-20T02:31:27.208Z,96153.00
2018-09-20T02:31:59.345Z,96150.00
2018-09-20T02:32:31.490Z,96148.00
2018-09-20T02:33:03.676Z,96150.00
2018-09-20T02:33:36.108Z,96150.00
2018-09-20T02:34:08.214Z,96152.00
2018-09-20T02:34:40.617Z,96154.00
2018-09-20T02:35:12.773Z,96150.00
2018-09-20T02:35:44.957Z,96152.00
2018-09-20T02:36:17.086Z,96153.00
2018-09-20T02:36:49.175Z,96148.00
2018-09-20T02:37:21.420Z,96149.00
2018-09-20T02:37:53.591Z,96150.00
2018-09-20T02:38:25.851Z,96143.00
2018-09-20T02:38:58.166Z,96148.00
2018-09-20T02:39:30.275Z,96146.00
2018-09-20T02:40:02.424Z,96144.00
2018-09-20T02:40:34.614Z,96144.00
2018-09-20T02:41:06.747Z,96150.00
2018-09-20T02:41:38.881Z,96148.00
2018-09-20T02:42:10.967Z,96150.00
2018-09-20T02:42:43.066Z,96147.00
2018-09-20T02:43:15.158Z,96149.00
2018-09-20T02:43:47.372Z,96147.00
2018-09-20T02:44:19.607Z,96152.00
2018-09-20T02:44:51.888Z,96155.00
2018-09-20T02:45:23.974Z,96151.00
2018-09-20T02:45:56.090Z,96152.00
2018-09-20T02:46:28.315Z,96152.00
2018-09-20T02:47:00.412Z,96152.00
2018-09-20T02:47:32.529Z,96155.00
2018-09-20T02:48:04.682Z,96151.00
2018-09-20T02:48:36.865Z,96150.00
2018-09-20T02:49:08.992Z,96153.00
2018-09-20T02:49:41.112Z,96157.00
2018-09-20T02:50:13.289Z,96153.00
2018-09-20T02:50:45.418Z,96149.00
2018-09-20T02:51:17.547Z,96153.00
2018-09-20T02:51:49.662Z,96152.00
2018-09-20T02:52:21.806Z,96150.00
2018-09-20T02:52:54.085Z,96152.00
2018-09-20T02:53:26.654Z,96150.00
2018-09-20T02:53:58.746Z,96148.00
2018-09-20T02:54:31.031Z,96151.00
2018-09-20T02:55:03.303Z,96154.00
2018-09-20T02:55:35.399Z,96149.00
2018-09-20T02:56:07.510Z,96150.00
2018-09-20T02:56:39.783Z,96151.00
2018-09-20T02:57:12.053Z,96153.00
2018-09-20T02:57:44.130Z,96147.00
2018-09-20T02:58:16.250Z,96153.00
2018-09-20T02:58:48.585Z,96147.00
2018-09-20T02:59:20.705Z,96150.00
2018-09-20T02:59:52.820Z,96149.00
2018-09-20T03:00:24.951Z,96150.00
2018-09-20T03:00:57.103Z,96146.00
2018-09-20T03:01:29.478Z,96152.00
2018-09-20T03:02:01.668Z,96154.00
2018-09-20T03:02:33.958Z,96147.00
2018-09-20T03:03:06.063Z,96150.00
2018-09-20T03:03:38.194Z,96153.00
2018-09-20T03:04:10.339Z,96150.00
2018-09-20T03:04:42.504Z,96152.00
2018-09-20T03:05:14.809Z,96153.00
2018-09-20T03:05:46.919Z,96153.00
2018-09-20T03:06:19.017Z,96153.00
2018-09-20T03:06:51.326Z,96150.00
2018-09-20T03:07:23.459Z,96148.00
2018-09-20T03:07:55.700Z,96149.00
2018-09-20T03:08:27.842Z,96151.00
2018-09-20T03:09:00.047Z,96152.00
2018-09-20T03:09:32.160Z,96149.00
2018-09-20T03:10:04.249Z,96153.00
2018-09-20T03:10:36.519Z,96151.00
2018-09-20T03:11:08.660Z,96154.00
2018-09-20T03:11:40.911Z,96153.00
2018-09-20T03:12:13.054Z,96151.00
2018-09-20T03:12:45.153Z,96153.00
2018-09-20T03:13:17.356Z,96157.00
2018-09-20T03:13:49.566Z,96152.00
2018-09-20T03:14:21.677Z,96154.00
2018-09-20T03:14:53.815Z,96151.00
2018-09-20T03:15:25.993Z,96152.00
2018-09-20T03:15:58.242Z,96156.00
2018-09-20T03:16:30.511Z,96149.00
2018-09-20T03:17:02.606Z,96153.00
2018-09-20T03:17:34.750Z,96149.00
2018-09-20T03:18:06.944Z,96152.00
2018-09-20T03:18:39.046Z,96145.00
2018-09-20T03:19:11.377Z,96148.00
2018-09-20T03:19:43.513Z,96150.00
2018-09-20T03:20:15.614Z,96149.00
2018-09-20T03:20:47.717Z,96153.00
2018-09-20T03:21:19.831Z,96153.00
2018-09-20T03:21:51.911Z,96151.00
2018-09-20T03:22:24.037Z,96155.00
2018-09-20T03:22:56.178Z,96154.00
2018-09-20T03:23:28.321Z,96154.00
2018-09-20T03:24:00.449Z,96158.00
2018-09-20T03:24:32.673Z,96157.00
2018-09-20T03:25:04.846Z,96155.00
2018-09-20T03:25:36.919Z,96155.00
2018-09-20T03:26:09.177Z,96155.00
2018-09-20T03:26:41.258Z,96156.00
2018-09-20T03:27:13.560Z,96158.00
2018-09-20T03:27:45.667Z,96158.00
2018-09-20T03:28:17.825Z,96159.00
2018-09-20T03:28:49.985Z,96155.00
2018-09-20T03:29:22.091Z,96154.00
2018-09-20T03:29:54.363Z,96154.00
2018-09-20T03:30:26.653Z,96156.00
2018-09-20T03:30:58.754Z,96153.00
2018-09-20T03:31:30.990Z,96155.00
2018-09-20T03:32:03.094Z,96150.00
2018-09-20T03:32:35.192Z,96155.00
2018-09-20T03:33:07.381Z,96154.00
2018-09-20T03:33:39.490Z,96156.00
2018-09-20T03:34:11.679Z,96158.00
2018-09-20T03:34:43.783Z,96154.00
2018-09-20T03:35:15.968Z,96159.00
2018-09-20T03:35:48.213Z,96161.00
2018-09-20T03:36:20.404Z,96156.00
2018-09-20T03:36:52.563Z,96160.00
2018-09-20T03:37:24.702Z,96164.00
2018-09-20T03:37:56.854Z,96160.00
2018-09-20T03:38:29.130Z,96158.00
2018-09-20T03:39:01.199Z,96163.00
2018-09-20T03:39:33.350Z,96162.00
2018-09-20T03:40:05.472Z,96161.00
2018-09-20T03:40:37.567Z,96159.00
2018-09-20T03:41:09.660Z,96159.00
2018-09-20T03:41:41.854Z,96156.00
2018-09-20T03:42:13.938Z,96157.00
2018-09-20T03:42:46.152Z,96157.00
2018-09-20T03:43:18.409Z,96153.00
2018-09-20T03:43:50.581Z,96157.00
2018-09-20T03:44:22.786Z,96155.00
2018-09-20T03:44:54.927Z,96158.00
2018-09-20T03:45:27.163Z,96152.00
2018-09-20T03:45:59.261Z,96154.00
2018-09-20T03:46:31.644Z,96150.00
2018-09-20T03:47:03.865Z,96152.00
2018-09-20T03:47:35.993Z,96152.00
2018-09-20T03:48:08.122Z,96150.00
2018-09-20T03:48:40.247Z,96148.00
2018-09-20T03:49:12.616Z,96150.00
2018-09-20T03:49:44.835Z,96150.00
2018-09-20T03:50:17.128Z,96152.00
2018-09-20T03:50:49.277Z,96155.00
2018-09-20T03:51:21.397Z,96152.00
2018-09-20T03:51:53.493Z,96154.00
2018-09-20T03:52:25.641Z,96150.00
2018-09-20T03:52:57.923Z,96158.00
2018-09-20T03:53:30.156Z,96155.00
2018-09-20T03:54:02.257Z,96154.00
2018-09-20T03:54:34.389Z,96158.00
2018-09-20T03:55:06.724Z,96156.00
2018-09-20T03:55:38.976Z,96154.00
2018-09-20T03:56:11.059Z,96154.00
2018-09-20T03:56:43.271Z,96159.00
2018-09-20T03:57:15.556Z,96156.00
2018-09-20T03:57:47.893Z,96157.00
2018-09-20T03:58:20.020Z,96152.00
2018-09-20T03:58:52.259Z,96158.00
2018-09-20T03:59:24.405Z,96165.00
2018-09-20T03:59:56.610Z,96160.00
2018-09-20T04:00:28.837Z,96162.00
2018-09-20T04:01:01.302Z,96159.00
2018-09-20T04:01:33.447Z,96160.00
2018-09-20T04:02:05.569Z,96165.00
2018-09-20T04:02:37.766Z,96161.00
2018-09-20T04:03:09.951Z,96156.00
2018-09-20T04:03:42.064Z,96158.00
2018-09-20T04:04:14.399Z,96151.00
2018-09-20T04:04:46.549Z,96151.00
2018-09-20T04:05:52.217Z,96153.00
2018-09-20T04:06:24.337Z,96152.00
2018-09-20T04:06:56.528Z,96154.00
2018-09-20T04:07:28.897Z,96152.00
2018-09-20T04:08:01.031Z,96153.00
2018-09-20T04:08:33.195Z,96152.00
2018-09-20T04:09:05.340Z,96148.00
2018-09-20T04:09:37.502Z,96152.00
2018-09-20T04:10:09.621Z,96153.00
2018-09-20T04:10:41.725Z,96155.00
2018-09-20T04:11:13.812Z,96157.00
2018-09-20T04:11:45.953Z,96153.00
2018-09-20T04:12:18.087Z,96154.00
2018-09-20T04:12:50.184Z,96152.00
2018-09-20T04:13:22.363Z,96157.00
2018-09-20T04:13:54.669Z,96159.00
2018-09-20T04:14:26.784Z,96161.00
2018-09-20T04:14:58.967Z,96160.00
2018-09-20T04:15:31.107Z,96161.00
2018-09-20T04:16:03.425Z,96159.00
2018-09-20T04:16:35.666Z,96161.00
2018-09-20T04:17:07.758Z,96154.00
2018-09-20T04:17:39.946Z,96161.00
2018-09-20T04:18:12.048Z,96161.00
2018-09-20T04:18:44.143Z,96158.00
2018-09-20T04:19:16.386Z,96158.00
2018-09-20T04:19:48.737Z,96164.00
2018-09-20T04:20:20.840Z,96164.00
2018-09-20T04:20:53.044Z,96162.00
2018-09-20T04:21:25.233Z,96165.00
2018-09-20T04:21:57.386Z,96164.00
2018-09-20T04:22:29.505Z,96160.00
2018-09-20T04:23:01.664Z,96162.00
2018-09-20T04:23:33.752Z,96159.00
2018-09-20T04:24:05.874Z,96152.00
2018-09-20T04:24:38.097Z,96157.00
2018-09-20T04:25:10.193Z,96159.00
2018-09-20T04:25:42.334Z,96158.00
2018-09-20T04:26:14.424Z,96158.00
2018-09-20T04:26:46.517Z,96156.00
2018-09-20T04:27:18.739Z,96157.00
2018-09-20T04:27:50.867Z,96162.00
2018-09-20T04:28:23.014Z,96156.00
2018-09-20T04:28:55.094Z,96148.00
2018-09-20T04:29:27.239Z,96150.00
2018-09-20T04:29:59.402Z,96153.00
2018-09-20T04:30:31.717Z,96151.00
2018-09-20T04:31:03.973Z,96153.00
2018-09-20T04:31:36.213Z,96151.00
2018-09-20T04:32:08.291Z,96154.00
2018-09-20T04:32:40.375Z,96151.00
2018-09-20T04:33:12.509Z,96149.00
2018-09-20T04:33:44.586Z,96149.00
2018-09-20T04:34:16.727Z,96148.00
2018-09-20T04:34:48.855Z,96145.00
2018-09-20T04:35:20.986Z,96144.00
2018-09-20T04:35:53.071Z,96148.00
2018-09-20T04:36:25.223Z,96146.00
2018-09-20T04:36:57.399Z,96154.00
2018-09-20T04:37:29.496Z,96151.00
2018-09-20T04:38:01.702Z,96149.00
2018-09-20T04:38:33.811Z,96152.00
2018-09-20T04:39:05.886Z,96150.00
2018-09-20T04:39:38.015Z,96155.00
2018-09-20T04:40:10.124Z,96147.00
2018-09-20T04:40:42.652Z,96151.00
2018-09-20T04:41:14.769Z,96154.00
2018-09-20T04:41:46.870Z,96154.00
2018-09-20T04:42:18.944Z,96152.00
2018-09-20T04:42:51.082Z,96154.00
2018-09-20T04:43:23.166Z,96149.00
2018-09-20T04:43:55.405Z,96151.00
2018-09-20T04:44:27.550Z,96149.00
2018-09-20T04:44:59.720Z,96146.00
2018-09-20T04:45:31.922Z,96147.00
2018-09-20T04:46:04.087Z,96152.00
2018-09-20T04:46:36.212Z,96150.00
2018-09-20T04:47:08.354Z,96154.00
2018-09-20T04:47:40.679Z,96155.00
2018-09-20T04:48:12.815Z,96152.00
2018-09-20T04:48:44.911Z,96155.00
2018-09-20T04:49:17.037Z,96158.00
2018-09-20T04:49:49.275Z,96157.00
2018-09-20T04:50:21.440Z,96158.00
2018-09-20T04:50:53.554Z,96159.00
2018-09-20T04:51:25.963Z,96157.00
2018-09-20T04:51:58.068Z,96165.00
2018-09-20T04:52:30.156Z,96161.00
2018-09-20T04:53:02.283Z,96163.00
2018-09-20T04:53:34.379Z,96162.00
2018-09-20T04:54:06.485Z,96163.00
2018-09-20T04:54:38.684Z,96160.00
2018-09-20T04:55:10.835Z,96161.00
2018-09-20T04:55:42.941Z,96163.00
2018-09-20T04:56:15.186Z,96165.00
2018-09-20T04:56:47.465Z,96164.00
2018-09-20T04:57:19.717Z,96167.00
2018-09-20T04:57:51.825Z,96165.00
2018-09-20T04:58:24.031Z,96166.00
2018-09-20T04:58:56.187Z,96166.00
2018-09-20T04:59:28.329Z,96165.00
2018-09-20T05:00:00.505Z,96166.00
2018-09-20T05:00:32.593Z,96166.00
2018-09-20T05:01:05.045Z,96168.00
2018-09-20T05:01:37.166Z,96169.00
2018-09-20T05:02:09.282Z,96165.00
2018-09-20T05:02:41.574Z,96165.00
2018-09-20T05:03:13.713Z,96167.00
2018-09-20T05:03:45.831Z,96172.00
2018-09-20T05:04:19.161Z,96171.00
2018-09-20T05:04:51.267Z,96170.00
2018-09-20T05:05:24.307Z,96171.00
2018-09-20T05:05:58.216Z,96171.00
2018-09-20T05:06:30.721Z,96171.00
2018-09-20T05:07:02.835Z,96172.00
2018-09-20T05:07:34.931Z,96173.00
2018-09-20T05:08:07.152Z,96175.00
2018-09-20T05:08:39.246Z,96171.00
2018-09-20T05:09:11.354Z,96171.00
2018-09-20T05:09:43.446Z,96173.00
2018-09-20T05:10:15.569Z,96172.00
2018-09-20T05:10:47.669Z,96171.00
2018-09-20T05:11:19.867Z,96173.00
2018-09-20T05:11:51.991Z,96172.00
2018-09-20T05:12:24.151Z,96175.00
2018-09-20T05:12:56.274Z,96172.00
2018-09-20T05:13:28.380Z,96178.00
2018-09-20T05:14:00.517Z,96175.00
2018-09-20T05:14:32.832Z,96175.00
2018-09-20T05:15:04.901Z,96173.00
2018-09-20T05:15:37.022Z,96175.00
2018-09-20T05:16:09.185Z,96173.00
2018-09-20T05:16:41.440Z,96171.00
2018-09-20T05:17:13.555Z,96173.00
2018-09-20T05:17:45.673Z,96178.00
2018-09-20T05:18:17.905Z,96174.00
2018-09-20T05:18:49.998Z,96180.00
2018-09-20T05:19:22.277Z,96176.00
2018-09-20T05:19:54.672Z,96176.00
2018-09-20T05:20:26.808Z,96178.00
2018-09-20T05:20:58.988Z,96176.00
2018-09-20T05:21:31.198Z,96179.00
2018-09-20T05:22:03.334Z,96181.00
2018-09-20T05:22:35.691Z,96179.00
2018-09-20T05:23:07.815Z,96178.00
2018-09-20T05:23:39.928Z,96181.00
2018-09-20T05:24:12.077Z,96185.00
2018-09-20T05:24:44.270Z,96182.00
2018-09-20T05:25:16.370Z,96185.00
2018-09-20T05:25:48.493Z,96183.00
2018-09-20T05:26:20.616Z,96181.00
2018-09-20T05:26:52.835Z,96184.00
2018-09-20T05:27:24.918Z,96181.00
2018-09-20T05:27:57.090Z,96187.00
2018-09-20T05:28:29.444Z,96186.00
2018-09-20T05:29:01.598Z,96187.00
2018-09-20T05:29:33.772Z,96187.00
2018-09-20T05:30:06.003Z,96184.00
2018-09-20T05:30:38.326Z,96186.00
2018-09-20T05:31:10.455Z,96189.00
2018-09-20T05:31:42.542Z,96187.00
2018-09-20T05:32:14.668Z,96187.00
2018-09-20T05:32:46.795Z,96189.00
2018-09-20T05:33:19.136Z,96184.00
2018-09-20T05:33:51.268Z,96188.00
2018-09-20T05:34:23.445Z,96186.00
2018-09-20T05:34:55.603Z,96189.00
2018-09-20T05:35:27.729Z,96194.00
2018-09-20T05:35:59.880Z,96190.00
2018-09-20T05:36:31.981Z,96192.00
2018-09-20T05:37:04.179Z,96192.00
2018-09-20T05:37:36.441Z,96194.00
2018-09-20T05:38:08.707Z,96192.00
2018-09-20T05:38:40.841Z,96192.00
2018-09-20T05:39:13.027Z,96192.00
2018-09-20T05:39:45.259Z,96186.00
2018-09-20T05:40:17.568Z,96190.00
2018-09-20T05:40:49.806Z,96194.00
2018-09-20T05:41:22.167Z,96187.00
2018-09-20T05:41:54.330Z,96185.00
2018-09-20T05:42:26.406Z,96189.00
2018-09-20T05:42:58.524Z,96188.00
2018-09-20T05:43:30.787Z,96189.00
2018-09-20T05:44:02.973Z,96188.00
2018-09-20T05:44:35.073Z,96187.00
2018-09-20T05:45:07.227Z,96190.00
2018-09-20T05:45:39.350Z,96189.00
2018-09-20T05:46:11.444Z,96192.00
2018-09-20T05:46:43.569Z,96191.00
2018-09-20T05:47:15.678Z,96193.00
2018-09-20T05:47:47.859Z,96191.00
2018-09-20T05:48:20.001Z,96190.00
2018-09-20T05:48:52.177Z,96193.00
2018-09-20T05:49:24.317Z,96188.00
2018-09-20T05:49:56.480Z,96190.00
2018-09-20T05:50:28.587Z,96191.00
2018-09-20T05:51:00.700Z,96188.00
2018-09-20T05:51:32.862Z,96186.00
2018-09-20T05:52:04.985Z,96188.00
2018-09-20T05:52:37.120Z,96185.00
2018-09-20T05:53:09.347Z,96186.00
2018-09-20T05:53:41.439Z,96181.00
2018-09-20T05:54:13.534Z,96184.00
2018-09-20T05:54:45.664Z,96179.00
2018-09-20T05:55:17.786Z,96183.00
2018-09-20T05:55:50.007Z,96184.00
2018-09-20T05:56:22.162Z,96183.00
2018-09-20T05:56:54.254Z,96183.00
2018-09-20T05:57:26.477Z,96181.00
2018-09-20T05:57:58.732Z,96183.00
2018-09-20T05:58:30.832Z,96184.00
2018-09-20T05:59:03.113Z,96186.00
2018-09-20T05:59:35.285Z,96188.00
2018-09-20T06:00:07.415Z,96190.00
2018-09-20T06:00:39.558Z,96189.00
2018-09-20T06:01:11.625Z,96183.00
2018-09-20T06:01:43.925Z,96191.00
2018-09-20T06:02:16.042Z,96187.00
2018-09-20T06:02:48.186Z,96189.00
2018-09-20T06:03:20.334Z,96195.00
2018-09-20T06:03:52.425Z,96191.00
2018-09-20T06:04:24.684Z,96196.00
2018-09-20T06:04:56.787Z,96193.00
2018-09-20T06:05:29.094Z,96196.00
2018-09-20T06:06:01.519Z,96192.00
2018-09-20T06:06:33.679Z,96199.00
2018-09-20T06:07:05.774Z,96195.00
2018-09-20T06:07:37.920Z,96195.00
2018-09-20T06:08:10.078Z,96195.00
2018-09-20T06:08:42.251Z,96197.00
2018-09-20T06:09:14.429Z,96199.00
2018-09-20T06:09:46.698Z,96199.00
2018-09-20T06:10:18.835Z,96200.00
2018-09-20T06:10:51.182Z,96201.00
2018-09-20T06:11:23.579Z,96202.00
2018-09-20T06:11:55.834Z,96202.00
2018-09-20T06:12:27.982Z,96202.00
2018-09-20T06:13:00.087Z,96204.00
2018-09-20T06:13:32.202Z,96207.00
2018-09-20T06:14:04.342Z,96205.00
2018-09-20T06:14:36.458Z,96204.00
2018-09-20T06:15:08.593Z,96204.00
2018-09-20T06:15:40.841Z,96204.00
2018-09-20T06:16:13.059Z,96204.00
2018-09-20T06:16:45.327Z,96202.00
2018-09-20T06:17:17.448Z,96205.00
2018-09-20T06:17:49.594Z,96205.00
2018-09-20T06:18:21.717Z,96204.00